sensor_id;sensor_type;location;lat;lon;timestamp;temperature;humidity
19493;DHT22;9887;54.366;10.958;2022-11-20T00:00:53;2.90;99.90
19493;DHT22;9887;54.366;10.958;2022-11-20T00:03:20;2.80;99.90
19493;DHT22;9887;54.366;10.958;2022-11-20T00:05:48;2.70;99.90
19493;DHT22;9887;54.366;10.958;2022-11-20T00:08:16;2.90;99.90
19493;DHT22;9887;54.366;10.958;2022-11-20T00:10:45;2.60;99.90
19493;DHT22;9887;54.366;10.958;2022-11-20T00:13:13;2.80;99.90
19493;DHT22;9887;54.366;10.958;2022-11-20T00:15:42;2.90;99.90
19493;DHT22;9887;54.366;10.958;2022-11-20T00:18:10;2.90;99.90
19493;DHT22;9887;54.366;10.958;2022-11-20T00:20:38;2.80;99.90
19493;DHT22;9887;54.366;10.958;2022-11-20T00:23:06;2.90;99.90
19493;DHT22;9887;54.366;10.958;2022-11-20T00:25:34;3.00;99.90
19493;DHT22;9887;54.366;10.958;2022-11-20T00:28:02;3.00;99.90
19493;DHT22;9887;54.366;10.958;2022-11-20T00:30:30;2.90;99.90
19493;DHT22;9887;54.366;10.958;2022-11-20T00:32:59;2.80;99.90
19493;DHT22;9887;54.366;10.958;2022-11-20T00:35:27;3.00;99.90
19493;DHT22;9887;54.366;10.958;2022-11-20T00:37:54;3.00;99.90
19493;DHT22;9887;54.366;10.958;2022-11-20T00:40:22;3.10;99.90
19493;DHT22;9887;54.366;10.958;2022-11-20T00:42:50;2.80;99.90
19493;DHT22;9887;54.366;10.958;2022-11-20T00:45:18;2.90;99.90
19493;DHT22;9887;54.366;10.958;2022-11-20T00:47:45;2.80;99.90
19493;DHT22;9887;54.366;10.958;2022-11-20T00:50:15;2.70;99.90
19493;DHT22;9887;54.366;10.958;2022-11-20T00:52:42;2.80;99.90
19493;DHT22;9887;54.366;10.958;2022-11-20T00:55:10;2.80;99.90
19493;DHT22;9887;54.366;10.958;2022-11-20T00:57:38;2.70;99.90
19493;DHT22;9887;54.366;10.958;2022-11-20T01:00:07;2.60;99.90
19493;DHT22;9887;54.366;10.958;2022-11-20T01:02:34;2.50;99.90
19493;DHT22;9887;54.366;10.958;2022-11-20T01:05:03;2.80;99.90
19493;DHT22;9887;54.366;10.958;2022-11-20T01:07:32;2.80;99.90
19493;DHT22;9887;54.366;10.958;2022-11-20T01:10:00;2.70;99.90
19493;DHT22;9887;54.366;10.958;2022-11-20T01:12:28;2.70;99.90
19493;DHT22;9887;54.366;10.958;2022-11-20T01:14:55;2.80;99.90
19493;DHT22;9887;54.366;10.958;2022-11-20T01:17:23;2.50;99.90
19493;DHT22;9887;54.366;10.958;2022-11-20T01:19:51;2.60;99.90
19493;DHT22;9887;54.366;10.958;2022-11-20T01:22:19;2.80;99.90
19493;DHT22;9887;54.366;10.958;2022-11-20T01:24:48;2.60;99.90
19493;DHT22;9887;54.366;10.958;2022-11-20T01:27:15;2.80;99.90
19493;DHT22;9887;54.366;10.958;2022-11-20T01:29:43;2.60;99.90
19493;DHT22;9887;54.366;10.958;2022-11-20T01:32:11;2.80;99.90
19493;DHT22;9887;54.366;10.958;2022-11-20T01:34:39;2.80;99.90
19493;DHT22;9887;54.366;10.958;2022-11-20T01:37:06;2.70;99.90
19493;DHT22;9887;54.366;10.958;2022-11-20T01:39:34;2.60;99.90
19493;DHT22;9887;54.366;10.958;2022-11-20T01:42:03;2.80;99.90
19493;DHT22;9887;54.366;10.958;2022-11-20T01:44:52;2.80;99.90
19493;DHT22;9887;54.366;10.958;2022-11-20T01:47:25;2.60;99.90
19493;DHT22;9887;54.366;10.958;2022-11-20T01:49:58;2.60;99.90
19493;DHT22;9887;54.366;10.958;2022-11-20T01:52:30;2.90;99.90
19493;DHT22;9887;54.366;10.958;2022-11-20T01:55:04;2.80;99.90
19493;DHT22;9887;54.366;10.958;2022-11-20T01:57:35;2.80;99.90
19493;DHT22;9887;54.366;10.958;2022-11-20T02:00:06;2.90;99.90
19493;DHT22;9887;54.366;10.958;2022-11-20T02:02:43;2.90;99.90
19493;DHT22;9887;54.366;10.958;2022-11-20T02:05:17;2.70;99.90
19493;DHT22;9887;54.366;10.958;2022-11-20T02:07:47;2.90;99.90
19493;DHT22;9887;54.366;10.958;2022-11-20T02:10:15;2.80;99.90
19493;DHT22;9887;54.366;10.958;2022-11-20T02:12:44;2.80;99.90
19493;DHT22;9887;54.366;10.958;2022-11-20T02:15:31;2.60;99.90
19493;DHT22;9887;54.366;10.958;2022-11-20T02:18:00;2.60;99.90
19493;DHT22;9887;54.366;10.958;2022-11-20T02:20:28;2.50;99.90
19493;DHT22;9887;54.366;10.958;2022-11-20T02:22:59;2.70;99.90
19493;DHT22;9887;54.366;10.958;2022-11-20T02:25:33;2.60;99.90
19493;DHT22;9887;54.366;10.958;2022-11-20T02:28:02;2.70;99.90
19493;DHT22;9887;54.366;10.958;2022-11-20T02:30:29;2.50;99.90
19493;DHT22;9887;54.366;10.958;2022-11-20T02:32:57;2.60;99.90
19493;DHT22;9887;54.366;10.958;2022-11-20T02:35:43;2.50;99.90
19493;DHT22;9887;54.366;10.958;2022-11-20T02:38:11;2.70;99.90
19493;DHT22;9887;54.366;10.958;2022-11-20T02:40:40;2.70;99.90
19493;DHT22;9887;54.366;10.958;2022-11-20T02:43:08;2.60;99.90
19493;DHT22;9887;54.366;10.958;2022-11-20T02:45:37;2.70;99.90
19493;DHT22;9887;54.366;10.958;2022-11-20T02:48:06;2.70;99.90
19493;DHT22;9887;54.366;10.958;2022-11-20T02:50:36;2.80;99.90
19493;DHT22;9887;54.366;10.958;2022-11-20T02:55:32;2.20;99.90
19493;DHT22;9887;54.366;10.958;2022-11-20T03:02:58;2.20;99.90
19493;DHT22;9887;54.366;10.958;2022-11-20T03:05:26;2.10;99.90
19493;DHT22;9887;54.366;10.958;2022-11-20T03:10:22;2.20;99.90
19493;DHT22;9887;54.366;10.958;2022-11-20T03:12:53;2.00;99.90
19493;DHT22;9887;54.366;10.958;2022-11-20T03:15:23;2.20;99.90
19493;DHT22;9887;54.366;10.958;2022-11-20T03:17:53;2.00;99.90
19493;DHT22;9887;54.366;10.958;2022-11-20T03:20:22;2.20;99.90
19493;DHT22;9887;54.366;10.958;2022-11-20T03:22:49;2.00;99.90
19493;DHT22;9887;54.366;10.958;2022-11-20T03:25:17;2.10;99.90
19493;DHT22;9887;54.366;10.958;2022-11-20T03:27:45;2.00;99.90
19493;DHT22;9887;54.366;10.958;2022-11-20T03:30:13;2.20;99.90
19493;DHT22;9887;54.366;10.958;2022-11-20T03:32:43;2.00;99.90
19493;DHT22;9887;54.366;10.958;2022-11-20T03:35:11;2.00;99.90
19493;DHT22;9887;54.366;10.958;2022-11-20T03:37:38;2.00;99.90
19493;DHT22;9887;54.366;10.958;2022-11-20T03:40:07;2.20;99.90
19493;DHT22;9887;54.366;10.958;2022-11-20T03:42:35;1.90;99.90
19493;DHT22;9887;54.366;10.958;2022-11-20T03:45:16;1.90;99.90
19493;DHT22;9887;54.366;10.958;2022-11-20T03:47:46;1.90;99.90
19493;DHT22;9887;54.366;10.958;2022-11-20T03:50:14;2.10;99.90
19493;DHT22;9887;54.366;10.958;2022-11-20T03:52:42;2.10;99.90
19493;DHT22;9887;54.366;10.958;2022-11-20T03:55:09;2.20;99.90
19493;DHT22;9887;54.366;10.958;2022-11-20T03:57:37;2.10;99.90
19493;DHT22;9887;54.366;10.958;2022-11-20T04:00:06;2.20;99.90
19493;DHT22;9887;54.366;10.958;2022-11-20T04:05:04;2.10;99.90
19493;DHT22;9887;54.366;10.958;2022-11-20T04:07:34;2.10;99.90
19493;DHT22;9887;54.366;10.958;2022-11-20T04:10:02;1.90;99.90
19493;DHT22;9887;54.366;10.958;2022-11-20T04:12:32;2.00;99.90
19493;DHT22;9887;54.366;10.958;2022-11-20T04:14:59;2.00;99.90
19493;DHT22;9887;54.366;10.958;2022-11-20T04:17:27;1.80;99.90
19493;DHT22;9887;54.366;10.958;2022-11-20T04:19:55;2.10;99.90
19493;DHT22;9887;54.366;10.958;2022-11-20T04:22:24;1.80;99.90
19493;DHT22;9887;54.366;10.958;2022-11-20T04:24:52;2.00;99.90
19493;DHT22;9887;54.366;10.958;2022-11-20T04:27:20;2.20;99.90
19493;DHT22;9887;54.366;10.958;2022-11-20T04:29:48;2.10;99.90
19493;DHT22;9887;54.366;10.958;2022-11-20T04:32:16;2.10;99.90
19493;DHT22;9887;54.366;10.958;2022-11-20T04:34:43;2.00;99.90
19493;DHT22;9887;54.366;10.958;2022-11-20T04:37:11;2.00;99.90
19493;DHT22;9887;54.366;10.958;2022-11-20T04:39:40;2.00;99.90
19493;DHT22;9887;54.366;10.958;2022-11-20T04:42:09;2.00;99.90
19493;DHT22;9887;54.366;10.958;2022-11-20T04:44:56;2.20;99.90
19493;DHT22;9887;54.366;10.958;2022-11-20T04:47:24;2.10;99.90
19493;DHT22;9887;54.366;10.958;2022-11-20T04:49:52;2.20;99.90
19493;DHT22;9887;54.366;10.958;2022-11-20T04:52:20;2.20;99.90
19493;DHT22;9887;54.366;10.958;2022-11-20T04:54:49;2.10;99.90
19493;DHT22;9887;54.366;10.958;2022-11-20T04:57:19;2.30;99.90
19493;DHT22;9887;54.366;10.958;2022-11-20T04:59:47;2.30;99.90
19493;DHT22;9887;54.366;10.958;2022-11-20T05:02:15;2.20;99.90
19493;DHT22;9887;54.366;10.958;2022-11-20T05:04:43;2.30;99.90
19493;DHT22;9887;54.366;10.958;2022-11-20T05:07:10;2.30;99.90
19493;DHT22;9887;54.366;10.958;2022-11-20T05:09:38;2.40;99.90
19493;DHT22;9887;54.366;10.958;2022-11-20T05:12:08;2.40;99.90
19493;DHT22;9887;54.366;10.958;2022-11-20T05:14:36;2.30;99.90
19493;DHT22;9887;54.366;10.958;2022-11-20T05:17:04;2.30;99.90
19493;DHT22;9887;54.366;10.958;2022-11-20T05:19:32;2.50;99.90
19493;DHT22;9887;54.366;10.958;2022-11-20T05:22:00;2.20;99.90
19493;DHT22;9887;54.366;10.958;2022-11-20T05:24:27;2.50;99.90
19493;DHT22;9887;54.366;10.958;2022-11-20T05:26:55;2.40;99.90
19493;DHT22;9887;54.366;10.958;2022-11-20T05:29:24;2.60;99.90
19493;DHT22;9887;54.366;10.958;2022-11-20T05:31:52;2.50;99.90
19493;DHT22;9887;54.366;10.958;2022-11-20T05:34:20;2.30;99.90
19493;DHT22;9887;54.366;10.958;2022-11-20T05:36:47;2.20;99.90
19493;DHT22;9887;54.366;10.958;2022-11-20T05:39:15;2.40;99.90
19493;DHT22;9887;54.366;10.958;2022-11-20T05:41:43;2.30;99.90
19493;DHT22;9887;54.366;10.958;2022-11-20T05:44:11;2.30;99.90
19493;DHT22;9887;54.366;10.958;2022-11-20T05:46:40;2.30;99.90
19493;DHT22;9887;54.366;10.958;2022-11-20T05:49:08;2.30;99.90
19493;DHT22;9887;54.366;10.958;2022-11-20T05:51:36;2.20;99.90
19493;DHT22;9887;54.366;10.958;2022-11-20T05:54:04;2.20;99.90
19493;DHT22;9887;54.366;10.958;2022-11-20T05:56:31;2.20;99.90
19493;DHT22;9887;54.366;10.958;2022-11-20T05:59:00;2.30;99.90
19493;DHT22;9887;54.366;10.958;2022-11-20T06:01:27;2.30;99.90
19493;DHT22;9887;54.366;10.958;2022-11-20T06:03:56;2.40;99.90
19493;DHT22;9887;54.366;10.958;2022-11-20T06:06:24;2.40;99.90
19493;DHT22;9887;54.366;10.958;2022-11-20T06:08:52;2.30;99.90
19493;DHT22;9887;54.366;10.958;2022-11-20T06:11:21;2.20;99.90
19493;DHT22;9887;54.366;10.958;2022-11-20T06:13:48;2.40;99.90
19493;DHT22;9887;54.366;10.958;2022-11-20T06:16:18;2.10;99.90
19493;DHT22;9887;54.366;10.958;2022-11-20T06:18:46;2.40;99.90
19493;DHT22;9887;54.366;10.958;2022-11-20T06:21:17;2.30;99.90
19493;DHT22;9887;54.366;10.958;2022-11-20T06:23:47;2.20;99.90
19493;DHT22;9887;54.366;10.958;2022-11-20T06:26:16;2.10;99.90
19493;DHT22;9887;54.366;10.958;2022-11-20T06:28:44;2.10;99.90
19493;DHT22;9887;54.366;10.958;2022-11-20T06:31:14;2.40;99.90
19493;DHT22;9887;54.366;10.958;2022-11-20T06:33:43;2.30;99.90
19493;DHT22;9887;54.366;10.958;2022-11-20T06:36:11;2.30;99.90
19493;DHT22;9887;54.366;10.958;2022-11-20T06:38:41;2.20;99.90
19493;DHT22;9887;54.366;10.958;2022-11-20T06:41:12;2.20;99.90
19493;DHT22;9887;54.366;10.958;2022-11-20T06:43:40;2.20;99.90
19493;DHT22;9887;54.366;10.958;2022-11-20T06:46:09;2.30;99.90
19493;DHT22;9887;54.366;10.958;2022-11-20T06:48:37;2.20;99.90
19493;DHT22;9887;54.366;10.958;2022-11-20T06:51:06;2.20;99.90
19493;DHT22;9887;54.366;10.958;2022-11-20T06:53:35;1.90;99.90
19493;DHT22;9887;54.366;10.958;2022-11-20T06:56:05;2.00;99.90
19493;DHT22;9887;54.366;10.958;2022-11-20T06:58:34;2.00;99.90
19493;DHT22;9887;54.366;10.958;2022-11-20T07:01:04;1.90;99.90
19493;DHT22;9887;54.366;10.958;2022-11-20T07:03:32;2.10;99.90
19493;DHT22;9887;54.366;10.958;2022-11-20T07:06:01;2.00;99.90
19493;DHT22;9887;54.366;10.958;2022-11-20T07:08:29;1.80;99.90
19493;DHT22;9887;54.366;10.958;2022-11-20T07:10:58;2.00;99.90
19493;DHT22;9887;54.366;10.958;2022-11-20T07:13:28;1.90;99.90
19493;DHT22;9887;54.366;10.958;2022-11-20T07:15:59;2.00;99.90
19493;DHT22;9887;54.366;10.958;2022-11-20T07:18:27;2.20;99.90
19493;DHT22;9887;54.366;10.958;2022-11-20T07:20:55;1.80;99.90
19493;DHT22;9887;54.366;10.958;2022-11-20T07:23:23;2.00;99.90
19493;DHT22;9887;54.366;10.958;2022-11-20T07:25:51;2.00;99.90
19493;DHT22;9887;54.366;10.958;2022-11-20T07:28:19;2.00;99.90
19493;DHT22;9887;54.366;10.958;2022-11-20T07:30:51;1.90;99.90
19493;DHT22;9887;54.366;10.958;2022-11-20T07:33:19;1.80;99.90
19493;DHT22;9887;54.366;10.958;2022-11-20T07:35:47;2.00;99.90
19493;DHT22;9887;54.366;10.958;2022-11-20T07:38:14;2.10;99.90
19493;DHT22;9887;54.366;10.958;2022-11-20T07:40:42;2.20;99.90
19493;DHT22;9887;54.366;10.958;2022-11-20T07:43:10;2.10;99.90
19493;DHT22;9887;54.366;10.958;2022-11-20T07:45:38;1.90;99.90
19493;DHT22;9887;54.366;10.958;2022-11-20T07:48:07;2.00;99.90
19493;DHT22;9887;54.366;10.958;2022-11-20T07:50:35;1.90;99.90
19493;DHT22;9887;54.366;10.958;2022-11-20T07:53:04;1.90;99.90
19493;DHT22;9887;54.366;10.958;2022-11-20T07:55:32;2.00;99.90
19493;DHT22;9887;54.366;10.958;2022-11-20T07:58:00;2.00;99.90
19493;DHT22;9887;54.366;10.958;2022-11-20T08:00:27;2.10;99.90
19493;DHT22;9887;54.366;10.958;2022-11-20T08:02:55;2.20;99.90
19493;DHT22;9887;54.366;10.958;2022-11-20T08:05:24;2.00;99.90
19493;DHT22;9887;54.366;10.958;2022-11-20T08:07:52;2.00;99.90
19493;DHT22;9887;54.366;10.958;2022-11-20T08:10:20;2.10;99.90
19493;DHT22;9887;54.366;10.958;2022-11-20T08:12:49;2.20;99.90
19493;DHT22;9887;54.366;10.958;2022-11-20T08:15:35;2.30;99.90
19493;DHT22;9887;54.366;10.958;2022-11-20T08:18:05;2.30;99.90
19493;DHT22;9887;54.366;10.958;2022-11-20T08:20:55;2.00;99.90
19493;DHT22;9887;54.366;10.958;2022-11-20T08:23:23;2.30;99.90
19493;DHT22;9887;54.366;10.958;2022-11-20T08:25:51;2.30;99.90
19493;DHT22;9887;54.366;10.958;2022-11-20T08:28:19;2.20;99.90
19493;DHT22;9887;54.366;10.958;2022-11-20T08:30:48;2.30;99.90
19493;DHT22;9887;54.366;10.958;2022-11-20T08:33:17;2.20;99.90
19493;DHT22;9887;54.366;10.958;2022-11-20T08:35:45;2.20;99.90
19493;DHT22;9887;54.366;10.958;2022-11-20T08:38:14;2.30;99.90
19493;DHT22;9887;54.366;10.958;2022-11-20T08:40:42;2.20;99.90
19493;DHT22;9887;54.366;10.958;2022-11-20T08:43:31;2.10;99.90
19493;DHT22;9887;54.366;10.958;2022-11-20T08:46:00;2.30;99.90
19493;DHT22;9887;54.366;10.958;2022-11-20T08:48:27;2.40;99.90
19493;DHT22;9887;54.366;10.958;2022-11-20T08:50:57;2.20;99.90
19493;DHT22;9887;54.366;10.958;2022-11-20T08:53:27;2.30;99.90
19493;DHT22;9887;54.366;10.958;2022-11-20T08:55:56;2.30;99.90
19493;DHT22;9887;54.366;10.958;2022-11-20T08:58:24;2.30;99.90
19493;DHT22;9887;54.366;10.958;2022-11-20T09:00:53;2.30;99.90
19493;DHT22;9887;54.366;10.958;2022-11-20T09:03:21;2.30;99.90
19493;DHT22;9887;54.366;10.958;2022-11-20T09:05:56;2.20;99.90
19493;DHT22;9887;54.366;10.958;2022-11-20T09:08:24;2.30;99.90
19493;DHT22;9887;54.366;10.958;2022-11-20T09:10:54;2.40;99.90
19493;DHT22;9887;54.366;10.958;2022-11-20T09:13:23;2.20;99.90
19493;DHT22;9887;54.366;10.958;2022-11-20T09:15:54;2.30;99.90
19493;DHT22;9887;54.366;10.958;2022-11-20T09:18:23;2.50;99.90
19493;DHT22;9887;54.366;10.958;2022-11-20T09:20:51;2.40;99.90
19493;DHT22;9887;54.366;10.958;2022-11-20T09:23:18;2.30;99.90
19493;DHT22;9887;54.366;10.958;2022-11-20T09:25:46;2.30;99.90
19493;DHT22;9887;54.366;10.958;2022-11-20T09:28:15;2.20;99.90
19493;DHT22;9887;54.366;10.958;2022-11-20T09:30:44;2.20;99.90
19493;DHT22;9887;54.366;10.958;2022-11-20T09:33:12;2.30;99.90
19493;DHT22;9887;54.366;10.958;2022-11-20T09:35:40;2.20;99.90
19493;DHT22;9887;54.366;10.958;2022-11-20T09:38:10;2.40;99.90
19493;DHT22;9887;54.366;10.958;2022-11-20T09:40:40;2.20;99.90
19493;DHT22;9887;54.366;10.958;2022-11-20T09:43:17;2.30;99.90
19493;DHT22;9887;54.366;10.958;2022-11-20T09:45:59;2.40;99.90
19493;DHT22;9887;54.366;10.958;2022-11-20T09:48:53;2.50;99.90
19493;DHT22;9887;54.366;10.958;2022-11-20T09:51:36;2.40;99.90
19493;DHT22;9887;54.366;10.958;2022-11-20T09:54:13;2.50;99.90
19493;DHT22;9887;54.366;10.958;2022-11-20T09:56:44;2.60;99.90
19493;DHT22;9887;54.366;10.958;2022-11-20T09:59:33;2.40;99.90
19493;DHT22;9887;54.366;10.958;2022-11-20T10:02:02;2.30;99.90
19493;DHT22;9887;54.366;10.958;2022-11-20T10:04:40;2.40;99.90
19493;DHT22;9887;54.366;10.958;2022-11-20T10:07:15;2.20;99.90
19493;DHT22;9887;54.366;10.958;2022-11-20T10:09:58;2.30;99.90
19493;DHT22;9887;54.366;10.958;2022-11-20T10:12:32;2.40;99.90
19493;DHT22;9887;54.366;10.958;2022-11-20T10:15:12;2.50;99.90
19493;DHT22;9887;54.366;10.958;2022-11-20T10:17:58;2.40;99.90
19493;DHT22;9887;54.366;10.958;2022-11-20T10:20:36;2.60;99.90
19493;DHT22;9887;54.366;10.958;2022-11-20T10:23:33;2.60;99.90
19493;DHT22;9887;54.366;10.958;2022-11-20T10:26:11;2.70;99.90
19493;DHT22;9887;54.366;10.958;2022-11-20T10:28:53;2.50;99.90
19493;DHT22;9887;54.366;10.958;2022-11-20T10:31:31;2.50;99.90
19493;DHT22;9887;54.366;10.958;2022-11-20T10:34:04;2.70;99.90
19493;DHT22;9887;54.366;10.958;2022-11-20T10:36:42;2.70;99.90
19493;DHT22;9887;54.366;10.958;2022-11-20T10:39:18;2.60;99.90
19493;DHT22;9887;54.366;10.958;2022-11-20T10:41:52;2.70;99.90
19493;DHT22;9887;54.366;10.958;2022-11-20T10:44:21;2.70;99.90
19493;DHT22;9887;54.366;10.958;2022-11-20T10:47:05;2.70;99.90
19493;DHT22;9887;54.366;10.958;2022-11-20T10:49:37;2.70;99.90
19493;DHT22;9887;54.366;10.958;2022-11-20T10:52:12;2.60;99.90
19493;DHT22;9887;54.366;10.958;2022-11-20T10:54:54;2.80;99.90
19493;DHT22;9887;54.366;10.958;2022-11-20T10:57:34;2.90;99.90
19493;DHT22;9887;54.366;10.958;2022-11-20T11:00:05;2.80;99.90
19493;DHT22;9887;54.366;10.958;2022-11-20T11:02:39;2.70;99.90
19493;DHT22;9887;54.366;10.958;2022-11-20T11:05:20;2.80;99.90
19493;DHT22;9887;54.366;10.958;2022-11-20T11:07:51;3.00;99.90
19493;DHT22;9887;54.366;10.958;2022-11-20T11:10:24;2.90;99.90
19493;DHT22;9887;54.366;10.958;2022-11-20T11:12:53;3.00;99.90
19493;DHT22;9887;54.366;10.958;2022-11-20T11:15:27;3.00;99.90
19493;DHT22;9887;54.366;10.958;2022-11-20T11:17:56;3.00;99.90
19493;DHT22;9887;54.366;10.958;2022-11-20T11:20:25;3.00;99.90
19493;DHT22;9887;54.366;10.958;2022-11-20T11:22:54;3.00;99.90
19493;DHT22;9887;54.366;10.958;2022-11-20T11:25:27;3.10;99.90
19493;DHT22;9887;54.366;10.958;2022-11-20T11:27:57;3.10;99.90
19493;DHT22;9887;54.366;10.958;2022-11-20T11:30:27;3.00;99.90
19493;DHT22;9887;54.366;10.958;2022-11-20T11:33:05;3.00;99.90
19493;DHT22;9887;54.366;10.958;2022-11-20T11:35:33;3.10;99.90
19493;DHT22;9887;54.366;10.958;2022-11-20T11:38:12;3.00;99.90
19493;DHT22;9887;54.366;10.958;2022-11-20T11:40:42;3.10;99.90
19493;DHT22;9887;54.366;10.958;2022-11-20T11:43:18;2.90;99.90
19493;DHT22;9887;54.366;10.958;2022-11-20T11:46:24;3.00;99.90
19493;DHT22;9887;54.366;10.958;2022-11-20T11:48:59;3.00;99.90
19493;DHT22;9887;54.366;10.958;2022-11-20T11:51:34;3.00;99.90
19493;DHT22;9887;54.366;10.958;2022-11-20T11:54:14;3.20;99.90
19493;DHT22;9887;54.366;10.958;2022-11-20T11:56:43;3.00;99.90
19493;DHT22;9887;54.366;10.958;2022-11-20T11:59:16;2.90;99.90
19493;DHT22;9887;54.366;10.958;2022-11-20T12:01:51;3.20;99.90
19493;DHT22;9887;54.366;10.958;2022-11-20T12:04:35;3.20;99.90
19493;DHT22;9887;54.366;10.958;2022-11-20T12:07:10;3.10;99.90
19493;DHT22;9887;54.366;10.958;2022-11-20T12:10:00;3.20;99.90
19493;DHT22;9887;54.366;10.958;2022-11-20T12:12:32;3.20;99.90
19493;DHT22;9887;54.366;10.958;2022-11-20T12:15:06;3.20;99.90
19493;DHT22;9887;54.366;10.958;2022-11-20T12:17:37;3.30;99.90
19493;DHT22;9887;54.366;10.958;2022-11-20T12:20:11;3.20;99.90
19493;DHT22;9887;54.366;10.958;2022-11-20T12:22:45;3.10;99.90
19493;DHT22;9887;54.366;10.958;2022-11-20T12:25:20;3.50;99.90
19493;DHT22;9887;54.366;10.958;2022-11-20T12:28:18;3.50;99.90
19493;DHT22;9887;54.366;10.958;2022-11-20T12:30:59;3.20;99.90
19493;DHT22;9887;54.366;10.958;2022-11-20T12:33:49;3.20;99.90
19493;DHT22;9887;54.366;10.958;2022-11-20T12:36:27;3.40;99.90
19493;DHT22;9887;54.366;10.958;2022-11-20T12:39:07;3.50;99.90
19493;DHT22;9887;54.366;10.958;2022-11-20T12:41:51;3.20;99.90
19493;DHT22;9887;54.366;10.958;2022-11-20T12:45:01;3.30;99.90
19493;DHT22;9887;54.366;10.958;2022-11-20T12:47:49;3.20;99.90
19493;DHT22;9887;54.366;10.958;2022-11-20T12:50:23;3.30;99.90
19493;DHT22;9887;54.366;10.958;2022-11-20T12:53:01;3.50;99.90
19493;DHT22;9887;54.366;10.958;2022-11-20T12:55:36;3.30;99.90
19493;DHT22;9887;54.366;10.958;2022-11-20T12:58:12;3.50;99.90
19493;DHT22;9887;54.366;10.958;2022-11-20T13:00:50;3.50;99.90
19493;DHT22;9887;54.366;10.958;2022-11-20T13:03:33;3.60;99.90
19493;DHT22;9887;54.366;10.958;2022-11-20T13:06:13;3.80;99.90
19493;DHT22;9887;54.366;10.958;2022-11-20T13:08:48;3.80;99.90
19493;DHT22;9887;54.366;10.958;2022-11-20T13:11:25;3.60;99.90
19493;DHT22;9887;54.366;10.958;2022-11-20T13:14:13;3.70;99.90
19493;DHT22;9887;54.366;10.958;2022-11-20T13:16:48;3.50;99.90
19493;DHT22;9887;54.366;10.958;2022-11-20T13:19:18;3.80;99.90
19493;DHT22;9887;54.366;10.958;2022-11-20T13:21:47;3.70;99.90
19493;DHT22;9887;54.366;10.958;2022-11-20T13:24:24;3.80;99.90
19493;DHT22;9887;54.366;10.958;2022-11-20T13:27:18;3.70;99.90
19493;DHT22;9887;54.366;10.958;2022-11-20T13:30:03;3.40;99.90
19493;DHT22;9887;54.366;10.958;2022-11-20T13:32:51;3.50;99.90
19493;DHT22;9887;54.366;10.958;2022-11-20T13:35:31;3.60;99.90
19493;DHT22;9887;54.366;10.958;2022-11-20T13:38:02;3.40;99.90
19493;DHT22;9887;54.366;10.958;2022-11-20T13:40:31;3.50;99.90
19493;DHT22;9887;54.366;10.958;2022-11-20T13:43:10;3.50;99.90
19493;DHT22;9887;54.366;10.958;2022-11-20T13:45:38;3.50;99.90
19493;DHT22;9887;54.366;10.958;2022-11-20T13:48:21;3.50;99.90
19493;DHT22;9887;54.366;10.958;2022-11-20T13:50:58;3.20;99.90
19493;DHT22;9887;54.366;10.958;2022-11-20T13:53:37;3.40;99.90
19493;DHT22;9887;54.366;10.958;2022-11-20T13:56:18;3.40;99.90
19493;DHT22;9887;54.366;10.958;2022-11-20T13:58:59;3.30;99.90
19493;DHT22;9887;54.366;10.958;2022-11-20T14:01:31;3.30;99.90
19493;DHT22;9887;54.366;10.958;2022-11-20T14:04:06;3.10;99.90
19493;DHT22;9887;54.366;10.958;2022-11-20T14:06:40;3.00;99.90
19493;DHT22;9887;54.366;10.958;2022-11-20T14:09:11;3.00;99.90
19493;DHT22;9887;54.366;10.958;2022-11-20T14:11:47;3.20;99.90
19493;DHT22;9887;54.366;10.958;2022-11-20T14:14:17;3.20;99.90
19493;DHT22;9887;54.366;10.958;2022-11-20T14:16:45;3.10;99.90
19493;DHT22;9887;54.366;10.958;2022-11-20T14:19:27;3.10;99.90
19493;DHT22;9887;54.366;10.958;2022-11-20T14:22:14;3.10;99.90
19493;DHT22;9887;54.366;10.958;2022-11-20T14:24:44;2.90;99.90
19493;DHT22;9887;54.366;10.958;2022-11-20T14:27:15;2.80;99.90
19493;DHT22;9887;54.366;10.958;2022-11-20T14:29:45;3.00;99.90
19493;DHT22;9887;54.366;10.958;2022-11-20T14:32:15;3.00;99.90
19493;DHT22;9887;54.366;10.958;2022-11-20T14:34:45;2.80;99.90
19493;DHT22;9887;54.366;10.958;2022-11-20T14:37:22;2.90;99.90
19493;DHT22;9887;54.366;10.958;2022-11-20T14:39:53;2.90;99.90
19493;DHT22;9887;54.366;10.958;2022-11-20T14:42:24;3.00;99.90
19493;DHT22;9887;54.366;10.958;2022-11-20T14:44:54;2.90;99.90
19493;DHT22;9887;54.366;10.958;2022-11-20T14:47:25;3.00;99.90
19493;DHT22;9887;54.366;10.958;2022-11-20T14:49:54;2.90;99.90
19493;DHT22;9887;54.366;10.958;2022-11-20T14:52:24;2.90;99.90
19493;DHT22;9887;54.366;10.958;2022-11-20T14:54:54;3.00;99.90
19493;DHT22;9887;54.366;10.958;2022-11-20T14:57:26;2.80;99.90
19493;DHT22;9887;54.366;10.958;2022-11-20T15:00:06;2.80;99.90
19493;DHT22;9887;54.366;10.958;2022-11-20T15:02:38;2.90;99.90
19493;DHT22;9887;54.366;10.958;2022-11-20T15:05:06;3.00;99.90
19493;DHT22;9887;54.366;10.958;2022-11-20T15:07:36;2.90;99.90
19493;DHT22;9887;54.366;10.958;2022-11-20T15:10:06;3.00;99.90
19493;DHT22;9887;54.366;10.958;2022-11-20T15:12:38;2.90;99.90
19493;DHT22;9887;54.366;10.958;2022-11-20T15:15:10;2.70;99.90
19493;DHT22;9887;54.366;10.958;2022-11-20T15:17:40;3.00;99.90
19493;DHT22;9887;54.366;10.958;2022-11-20T15:20:12;3.00;99.90
19493;DHT22;9887;54.366;10.958;2022-11-20T15:22:41;2.80;99.90
19493;DHT22;9887;54.366;10.958;2022-11-20T15:25:12;2.80;99.90
19493;DHT22;9887;54.366;10.958;2022-11-20T15:27:42;2.80;99.90
19493;DHT22;9887;54.366;10.958;2022-11-20T15:30:13;2.90;99.90
19493;DHT22;9887;54.366;10.958;2022-11-20T15:32:41;2.80;99.90
19493;DHT22;9887;54.366;10.958;2022-11-20T15:35:10;2.80;99.90
19493;DHT22;9887;54.366;10.958;2022-11-20T15:37:38;2.70;99.90
19493;DHT22;9887;54.366;10.958;2022-11-20T15:40:07;2.80;99.90
19493;DHT22;9887;54.366;10.958;2022-11-20T15:42:35;2.70;99.90
19493;DHT22;9887;54.366;10.958;2022-11-20T15:45:05;2.60;99.90
19493;DHT22;9887;54.366;10.958;2022-11-20T15:47:34;2.80;99.90
19493;DHT22;9887;54.366;10.958;2022-11-20T15:50:03;2.60;99.90
19493;DHT22;9887;54.366;10.958;2022-11-20T15:52:31;2.70;99.90
19493;DHT22;9887;54.366;10.958;2022-11-20T15:55:09;2.70;99.90
19493;DHT22;9887;54.366;10.958;2022-11-20T15:57:37;2.60;99.90
19493;DHT22;9887;54.366;10.958;2022-11-20T16:00:08;2.60;99.90
19493;DHT22;9887;54.366;10.958;2022-11-20T16:02:36;2.60;99.90
19493;DHT22;9887;54.366;10.958;2022-11-20T16:05:10;2.60;99.90
19493;DHT22;9887;54.366;10.958;2022-11-20T16:07:38;2.40;99.90
19493;DHT22;9887;54.366;10.958;2022-11-20T16:10:06;2.70;99.90
19493;DHT22;9887;54.366;10.958;2022-11-20T16:12:34;2.50;99.90
19493;DHT22;9887;54.366;10.958;2022-11-20T16:15:21;2.60;99.90
19493;DHT22;9887;54.366;10.958;2022-11-20T16:18:08;2.50;99.90
19493;DHT22;9887;54.366;10.958;2022-11-20T16:20:38;2.50;99.90
19493;DHT22;9887;54.366;10.958;2022-11-20T16:23:06;2.50;99.90
19493;DHT22;9887;54.366;10.958;2022-11-20T16:25:34;2.70;99.90